sensor_id;sensor_type;location;lat;lon;timestamp;P1;durP1;ratioP1;P2;durP2;ratioP2
10269;SDS011;5180;50.832;5.390;2022-10-16T00:00:31;8.85;;;8.35;;
10269;SDS011;5180;50.832;5.390;2022-10-16T00:02:57;6.63;;;6.20;;
10269;SDS011;5180;50.832;5.390;2022-10-16T00:05:23;6.32;;;6.03;;
10269;SDS011;5180;50.832;5.390;2022-10-16T00:07:48;6.88;;;6.43;;
10269;SDS011;5180;50.832;5.390;2022-10-16T00:10:14;5.47;;;5.03;;
10269;SDS011;5180;50.832;5.390;2022-10-16T00:12:40;6.28;;;5.88;;
10269;SDS011;5180;50.832;5.390;2022-10-16T00:15:05;6.78;;;6.38;;
10269;SDS011;5180;50.832;5.390;2022-10-16T00:17:32;5.43;;;5.13;;
10269;SDS011;5180;50.832;5.390;2022-10-16T00:19:57;6.70;;;6.20;;
10269;SDS011;5180;50.832;5.390;2022-10-16T00:22:23;8.32;;;7.65;;
10269;SDS011;5180;50.832;5.390;2022-10-16T00:24:49;12.77;;;12.10;;
10269;SDS011;5180;50.832;5.390;2022-10-16T00:27:14;8.35;;;7.90;;
10269;SDS011;5180;50.832;5.390;2022-10-16T00:29:40;15.10;;;14.35;;
10269;SDS011;5180;50.832;5.390;2022-10-16T00:32:06;13.30;;;12.50;;
10269;SDS011;5180;50.832;5.390;2022-10-16T00:34:31;13.05;;;12.25;;
10269;SDS011;5180;50.832;5.390;2022-10-16T00:36:57;9.60;;;9.07;;
10269;SDS011;5180;50.832;5.390;2022-10-16T00:39:22;5.95;;;5.55;;
10269;SDS011;5180;50.832;5.390;2022-10-16T00:41:48;5.28;;;4.88;;
10269;SDS011;5180;50.832;5.390;2022-10-16T00:47:10;5.00;;;4.70;;
10269;SDS011;5180;50.832;5.390;2022-10-16T00:49:40;4.43;;;4.22;;
10269;SDS011;5180;50.832;5.390;2022-10-16T00:52:06;5.53;;;4.63;;
10269;SDS011;5180;50.832;5.390;2022-10-16T00:54:32;5.07;;;4.45;;
10269;SDS011;5180;50.832;5.390;2022-10-16T00:57:00;5.60;;;5.30;;
10269;SDS011;5180;50.832;5.390;2022-10-16T00:59:31;5.82;;;5.50;;
10269;SDS011;5180;50.832;5.390;2022-10-16T01:02:02;9.68;;;9.18;;
10269;SDS011;5180;50.832;5.390;2022-10-16T01:04:34;13.98;;;13.23;;
10269;SDS011;5180;50.832;5.390;2022-10-16T01:09:33;8.32;;;7.82;;
10269;SDS011;5180;50.832;5.390;2022-10-16T01:15:25;13.07;;;12.48;;
10269;SDS011;5180;50.832;5.390;2022-10-16T01:23:19;9.05;;;8.57;;
10269;SDS011;5180;50.832;5.390;2022-10-16T01:28:46;11.02;;;10.32;;
10269;SDS011;5180;50.832;5.390;2022-10-16T01:31:21;10.27;;;9.65;;
10269;SDS011;5180;50.832;5.390;2022-10-16T01:34:14;6.32;;;6.03;;
10269;SDS011;5180;50.832;5.390;2022-10-16T01:36:47;5.07;;;4.78;;
10269;SDS011;5180;50.832;5.390;2022-10-16T01:39:22;7.25;;;6.85;;
10269;SDS011;5180;50.832;5.390;2022-10-16T01:41:52;7.70;;;7.20;;
10269;SDS011;5180;50.832;5.390;2022-10-16T01:44:22;14.95;;;14.00;;
10269;SDS011;5180;50.832;5.390;2022-10-16T01:46:53;12.85;;;12.20;;
10269;SDS011;5180;50.832;5.390;2022-10-16T01:49:20;7.05;;;6.65;;
10269;SDS011;5180;50.832;5.390;2022-10-16T01:51:49;11.15;;;10.60;;
10269;SDS011;5180;50.832;5.390;2022-10-16T01:54:19;7.97;;;7.53;;
10269;SDS011;5180;50.832;5.390;2022-10-16T01:56:47;10.98;;;10.45;;
10269;SDS011;5180;50.832;5.390;2022-10-16T01:59:16;14.02;;;13.32;;
10269;SDS011;5180;50.832;5.390;2022-10-16T02:01:49;10.95;;;10.40;;
10269;SDS011;5180;50.832;5.390;2022-10-16T02:07:11;5.70;;;5.35;;
10269;SDS011;5180;50.832;5.390;2022-10-16T02:09:37;8.27;;;7.45;;
10269;SDS011;5180;50.832;5.390;2022-10-16T02:12:11;14.88;;;13.95;;
10269;SDS011;5180;50.832;5.390;2022-10-16T02:14:42;9.48;;;8.93;;
10269;SDS011;5180;50.832;5.390;2022-10-16T02:17:12;16.38;;;15.48;;
10269;SDS011;5180;50.832;5.390;2022-10-16T02:19:40;16.60;;;15.55;;
10269;SDS011;5180;50.832;5.390;2022-10-16T02:22:07;13.98;;;13.27;;
10269;SDS011;5180;50.832;5.390;2022-10-16T02:29:44;10.45;;;9.95;;
10269;SDS011;5180;50.832;5.390;2022-10-16T02:32:19;12.40;;;11.63;;
10269;SDS011;5180;50.832;5.390;2022-10-16T02:34:49;10.45;;;9.95;;
10269;SDS011;5180;50.832;5.390;2022-10-16T02:37:16;11.07;;;10.48;;
10269;SDS011;5180;50.832;5.390;2022-10-16T02:39:43;13.93;;;13.20;;
10269;SDS011;5180;50.832;5.390;2022-10-16T02:42:12;13.82;;;13.07;;
10269;SDS011;5180;50.832;5.390;2022-10-16T02:44:39;11.82;;;11.10;;
10269;SDS011;5180;50.832;5.390;2022-10-16T02:47:04;15.13;;;14.13;;
10269;SDS011;5180;50.832;5.390;2022-10-16T02:49:30;13.02;;;12.35;;
10269;SDS011;5180;50.832;5.390;2022-10-16T02:51:56;11.35;;;10.75;;
10269;SDS011;5180;50.832;5.390;2022-10-16T02:54:21;13.07;;;12.32;;
10269;SDS011;5180;50.832;5.390;2022-10-16T02:56:47;13.90;;;12.00;;
10269;SDS011;5180;50.832;5.390;2022-10-16T02:59:12;15.25;;;14.18;;
10269;SDS011;5180;50.832;5.390;2022-10-16T03:01:38;13.52;;;12.82;;
10269;SDS011;5180;50.832;5.390;2022-10-16T03:04:04;13.45;;;12.55;;
10269;SDS011;5180;50.832;5.390;2022-10-16T03:06:29;14.25;;;13.38;;
10269;SDS011;5180;50.832;5.390;2022-10-16T03:08:55;14.70;;;13.80;;
10269;SDS011;5180;50.832;5.390;2022-10-16T03:11:20;13.93;;;13.20;;
10269;SDS011;5180;50.832;5.390;2022-10-16T03:13:46;12.98;;;12.35;;
10269;SDS011;5180;50.832;5.390;2022-10-16T03:16:12;12.57;;;11.57;;
10269;SDS011;5180;50.832;5.390;2022-10-16T03:18:37;9.60;;;8.90;;
10269;SDS011;5180;50.832;5.390;2022-10-16T03:21:03;13.10;;;12.30;;
10269;SDS011;5180;50.832;5.390;2022-10-16T03:23:28;10.48;;;9.68;;
10269;SDS011;5180;50.832;5.390;2022-10-16T03:25:54;11.55;;;10.80;;
10269;SDS011;5180;50.832;5.390;2022-10-16T03:28:20;12.77;;;12.02;;
10269;SDS011;5180;50.832;5.390;2022-10-16T03:30:45;12.02;;;11.43;;
10269;SDS011;5180;50.832;5.390;2022-10-16T03:33:11;13.63;;;12.73;;
10269;SDS011;5180;50.832;5.390;2022-10-16T03:35:37;11.88;;;11.13;;
10269;SDS011;5180;50.832;5.390;2022-10-16T03:38:02;12.00;;;11.20;;
10269;SDS011;5180;50.832;5.390;2022-10-16T03:40:28;12.60;;;11.73;;
10269;SDS011;5180;50.832;5.390;2022-10-16T03:42:54;10.90;;;10.05;;
10269;SDS011;5180;50.832;5.390;2022-10-16T03:45:22;13.00;;;12.07;;
10269;SDS011;5180;50.832;5.390;2022-10-16T03:47:48;10.38;;;9.77;;
10269;SDS011;5180;50.832;5.390;2022-10-16T03:50:14;12.75;;;12.05;;
10269;SDS011;5180;50.832;5.390;2022-10-16T03:52:40;10.50;;;9.82;;
10269;SDS011;5180;50.832;5.390;2022-10-16T03:55:06;10.45;;;9.85;;
10269;SDS011;5180;50.832;5.390;2022-10-16T03:57:32;10.57;;;9.98;;
10269;SDS011;5180;50.832;5.390;2022-10-16T03:59:58;11.20;;;10.48;;
10269;SDS011;5180;50.832;5.390;2022-10-16T04:02:23;10.98;;;10.18;;
10269;SDS011;5180;50.832;5.390;2022-10-16T04:04:49;14.85;;;13.75;;
10269;SDS011;5180;50.832;5.390;2022-10-16T04:07:15;17.17;;;16.02;;
10269;SDS011;5180;50.832;5.390;2022-10-16T04:09:40;11.80;;;10.85;;
10269;SDS011;5180;50.832;5.390;2022-10-16T04:12:07;12.02;;;11.23;;
10269;SDS011;5180;50.832;5.390;2022-10-16T04:14:33;13.27;;;12.48;;
10269;SDS011;5180;50.832;5.390;2022-10-16T04:16:59;12.13;;;10.95;;
10269;SDS011;5180;50.832;5.390;2022-10-16T04:19:24;12.32;;;11.63;;
10269;SDS011;5180;50.832;5.390;2022-10-16T04:21:50;11.43;;;10.80;;
10269;SDS011;5180;50.832;5.390;2022-10-16T04:24:15;11.40;;;10.32;;
10269;SDS011;5180;50.832;5.390;2022-10-16T04:26:41;11.77;;;11.05;;
10269;SDS011;5180;50.832;5.390;2022-10-16T04:29:07;17.85;;;16.65;;
10269;SDS011;5180;50.832;5.390;2022-10-16T04:31:33;21.63;;;20.42;;
10269;SDS011;5180;50.832;5.390;2022-10-16T04:33:59;16.52;;;15.50;;
10269;SDS011;5180;50.832;5.390;2022-10-16T04:36:24;13.70;;;12.80;;
10269;SDS011;5180;50.832;5.390;2022-10-16T04:38:50;14.55;;;13.55;;
10269;SDS011;5180;50.832;5.390;2022-10-16T04:41:15;19.92;;;18.75;;
10269;SDS011;5180;50.832;5.390;2022-10-16T04:43:41;17.65;;;16.63;;
10269;SDS011;5180;50.832;5.390;2022-10-16T04:46:06;25.10;;;23.63;;
10269;SDS011;5180;50.832;5.390;2022-10-16T04:48:32;20.42;;;19.30;;
10269;SDS011;5180;50.832;5.390;2022-10-16T04:50:58;20.42;;;19.27;;
10269;SDS011;5180;50.832;5.390;2022-10-16T04:53:24;12.32;;;11.55;;
10269;SDS011;5180;50.832;5.390;2022-10-16T04:55:49;17.77;;;16.58;;
10269;SDS011;5180;50.832;5.390;2022-10-16T04:58:15;22.20;;;20.92;;
10269;SDS011;5180;50.832;5.390;2022-10-16T05:00:41;23.55;;;22.25;;
10269;SDS011;5180;50.832;5.390;2022-10-16T05:03:07;24.63;;;23.15;;
10269;SDS011;5180;50.832;5.390;2022-10-16T05:05:34;21.25;;;19.92;;
10269;SDS011;5180;50.832;5.390;2022-10-16T05:08:00;25.70;;;24.02;;
10269;SDS011;5180;50.832;5.390;2022-10-16T05:10:26;19.38;;;18.17;;
10269;SDS011;5180;50.832;5.390;2022-10-16T05:12:51;17.65;;;16.65;;
10269;SDS011;5180;50.832;5.390;2022-10-16T05:15:17;21.38;;;20.00;;
10269;SDS011;5180;50.832;5.390;2022-10-16T05:17:43;25.00;;;23.65;;
10269;SDS011;5180;50.832;5.390;2022-10-16T05:20:09;21.90;;;20.50;;
10269;SDS011;5180;50.832;5.390;2022-10-16T05:22:35;23.27;;;21.85;;
10269;SDS011;5180;50.832;5.390;2022-10-16T05:25:00;25.13;;;23.58;;
10269;SDS011;5180;50.832;5.390;2022-10-16T05:27:26;25.35;;;23.95;;
10269;SDS011;5180;50.832;5.390;2022-10-16T05:29:51;23.33;;;21.67;;
10269;SDS011;5180;50.832;5.390;2022-10-16T05:32:17;19.23;;;17.92;;
10269;SDS011;5180;50.832;5.390;2022-10-16T05:34:44;22.20;;;20.80;;
10269;SDS011;5180;50.832;5.390;2022-10-16T05:37:10;24.70;;;22.90;;
10269;SDS011;5180;50.832;5.390;2022-10-16T05:39:36;22.38;;;20.92;;
10269;SDS011;5180;50.832;5.390;2022-10-16T05:42:03;18.52;;;17.10;;
10269;SDS011;5180;50.832;5.390;2022-10-16T05:44:29;15.15;;;14.25;;
10269;SDS011;5180;50.832;5.390;2022-10-16T05:46:54;14.90;;;13.73;;
10269;SDS011;5180;50.832;5.390;2022-10-16T05:49:20;13.93;;;12.93;;
10269;SDS011;5180;50.832;5.390;2022-10-16T05:51:45;13.98;;;12.88;;
10269;SDS011;5180;50.832;5.390;2022-10-16T05:54:11;16.55;;;15.45;;
10269;SDS011;5180;50.832;5.390;2022-10-16T05:56:37;15.23;;;14.32;;
10269;SDS011;5180;50.832;5.390;2022-10-16T05:59:03;14.85;;;14.05;;
10269;SDS011;5180;50.832;5.390;2022-10-16T06:01:29;15.00;;;13.90;;
10269;SDS011;5180;50.832;5.390;2022-10-16T06:03:56;14.25;;;13.35;;
10269;SDS011;5180;50.832;5.390;2022-10-16T06:06:22;18.17;;;16.92;;
10269;SDS011;5180;50.832;5.390;2022-10-16T06:08:52;18.83;;;17.50;;
10269;SDS011;5180;50.832;5.390;2022-10-16T06:11:21;15.18;;;13.93;;
10269;SDS011;5180;50.832;5.390;2022-10-16T06:13:52;26.30;;;24.85;;
10269;SDS011;5180;50.832;5.390;2022-10-16T06:16:19;21.83;;;20.67;;
10269;SDS011;5180;50.832;5.390;2022-10-16T06:18:45;20.48;;;19.33;;
10269;SDS011;5180;50.832;5.390;2022-10-16T06:21:16;23.65;;;22.08;;
10269;SDS011;5180;50.832;5.390;2022-10-16T06:23:43;18.95;;;17.80;;
10269;SDS011;5180;50.832;5.390;2022-10-16T06:26:11;18.75;;;17.70;;
10269;SDS011;5180;50.832;5.390;2022-10-16T06:28:38;19.05;;;17.88;;
10269;SDS011;5180;50.832;5.390;2022-10-16T06:31:05;22.90;;;21.70;;
10269;SDS011;5180;50.832;5.390;2022-10-16T06:33:31;25.02;;;23.63;;
10269;SDS011;5180;50.832;5.390;2022-10-16T06:36:04;27.73;;;26.25;;
10269;SDS011;5180;50.832;5.390;2022-10-16T06:38:34;25.60;;;24.13;;
10269;SDS011;5180;50.832;5.390;2022-10-16T06:41:00;25.63;;;24.08;;
10269;SDS011;5180;50.832;5.390;2022-10-16T06:43:26;23.98;;;22.70;;
10269;SDS011;5180;50.832;5.390;2022-10-16T06:45:57;25.85;;;24.45;;
10269;SDS011;5180;50.832;5.390;2022-10-16T06:48:24;23.42;;;22.23;;
10269;SDS011;5180;50.832;5.390;2022-10-16T06:50:57;24.70;;;23.13;;
10269;SDS011;5180;50.832;5.390;2022-10-16T06:53:27;20.75;;;19.60;;
10269;SDS011;5180;50.832;5.390;2022-10-16T06:55:55;22.05;;;20.65;;
10269;SDS011;5180;50.832;5.390;2022-10-16T06:58:20;19.73;;;18.63;;
10269;SDS011;5180;50.832;5.390;2022-10-16T07:00:46;21.50;;;20.23;;
10269;SDS011;5180;50.832;5.390;2022-10-16T07:03:12;23.42;;;22.15;;
10269;SDS011;5180;50.832;5.390;2022-10-16T07:05:38;20.65;;;19.50;;
10269;SDS011;5180;50.832;5.390;2022-10-16T07:08:05;15.95;;;15.10;;
10269;SDS011;5180;50.832;5.390;2022-10-16T07:10:31;19.55;;;18.35;;
10269;SDS011;5180;50.832;5.390;2022-10-16T07:12:57;29.98;;;28.27;;
10269;SDS011;5180;50.832;5.390;2022-10-16T07:15:24;22.50;;;20.95;;
10269;SDS011;5180;50.832;5.390;2022-10-16T07:17:50;21.35;;;20.17;;
10269;SDS011;5180;50.832;5.390;2022-10-16T07:20:16;23.38;;;22.15;;
10269;SDS011;5180;50.832;5.390;2022-10-16T07:22:41;25.13;;;23.77;;
10269;SDS011;5180;50.832;5.390;2022-10-16T07:25:07;11.25;;;10.38;;
10269;SDS011;5180;50.832;5.390;2022-10-16T07:27:33;22.45;;;21.25;;
10269;SDS011;5180;50.832;5.390;2022-10-16T07:29:59;33.30;;;31.58;;
10269;SDS011;5180;50.832;5.390;2022-10-16T07:32:24;26.00;;;24.52;;
10269;SDS011;5180;50.832;5.390;2022-10-16T07:34:51;21.30;;;19.60;;
10269;SDS011;5180;50.832;5.390;2022-10-16T07:37:17;19.30;;;18.15;;
10269;SDS011;5180;50.832;5.390;2022-10-16T07:39:42;21.70;;;20.48;;
10269;SDS011;5180;50.832;5.390;2022-10-16T07:42:08;16.25;;;15.45;;
10269;SDS011;5180;50.832;5.390;2022-10-16T07:44:34;12.48;;;11.52;;
10269;SDS011;5180;50.832;5.390;2022-10-16T07:46:59;17.67;;;16.65;;
10269;SDS011;5180;50.832;5.390;2022-10-16T07:49:25;13.05;;;12.23;;
10269;SDS011;5180;50.832;5.390;2022-10-16T07:51:51;10.13;;;9.63;;
10269;SDS011;5180;50.832;5.390;2022-10-16T07:54:16;6.18;;;5.78;;
10269;SDS011;5180;50.832;5.390;2022-10-16T07:56:42;5.13;;;4.43;;
10269;SDS011;5180;50.832;5.390;2022-10-16T07:59:08;5.32;;;4.85;;
10269;SDS011;5180;50.832;5.390;2022-10-16T08:01:33;4.70;;;3.55;;
10269;SDS011;5180;50.832;5.390;2022-10-16T08:03:59;3.47;;;3.05;;
10269;SDS011;5180;50.832;5.390;2022-10-16T08:06:25;2.75;;;2.30;;
10269;SDS011;5180;50.832;5.390;2022-10-16T08:08:50;2.75;;;2.53;;
10269;SDS011;5180;50.832;5.390;2022-10-16T08:11:16;2.60;;;2.40;;
10269;SDS011;5180;50.832;5.390;2022-10-16T08:13:42;2.22;;;2.03;;
10269;SDS011;5180;50.832;5.390;2022-10-16T08:16:08;2.35;;;1.90;;
10269;SDS011;5180;50.832;5.390;2022-10-16T08:18:35;3.00;;;2.00;;
10269;SDS011;5180;50.832;5.390;2022-10-16T08:21:01;2.00;;;1.58;;
10269;SDS011;5180;50.832;5.390;2022-10-16T08:23:28;2.13;;;1.45;;
10269;SDS011;5180;50.832;5.390;2022-10-16T08:25:54;2.95;;;1.70;;
10269;SDS011;5180;50.832;5.390;2022-10-16T08:28:21;2.83;;;1.40;;
10269;SDS011;5180;50.832;5.390;2022-10-16T08:30:48;2.05;;;1.40;;
10269;SDS011;5180;50.832;5.390;2022-10-16T08:33:14;2.47;;;1.65;;
10269;SDS011;5180;50.832;5.390;2022-10-16T08:35:39;1.85;;;1.20;;
10269;SDS011;5180;50.832;5.390;2022-10-16T08:38:05;2.75;;;1.27;;
10269;SDS011;5180;50.832;5.390;2022-10-16T08:40:32;2.80;;;1.30;;
10269;SDS011;5180;50.832;5.390;2022-10-16T08:46:06;2.25;;;1.27;;
10269;SDS011;5180;50.832;5.390;2022-10-16T08:48:54;2.15;;;1.20;;
10269;SDS011;5180;50.832;5.390;2022-10-16T08:51:25;1.42;;;1.00;;
10269;SDS011;5180;50.832;5.390;2022-10-16T08:53:55;1.13;;;1.05;;
10269;SDS011;5180;50.832;5.390;2022-10-16T08:56:23;1.35;;;1.08;;
10269;SDS011;5180;50.832;5.390;2022-10-16T08:58:49;2.30;;;1.10;;
10269;SDS011;5180;50.832;5.390;2022-10-16T09:01:17;2.17;;;1.20;;
10269;SDS011;5180;50.832;5.390;2022-10-16T09:06:30;2.03;;;1.10;;
10269;SDS011;5180;50.832;5.390;2022-10-16T09:11:54;2.95;;;1.10;;
10269;SDS011;5180;50.832;5.390;2022-10-16T09:23:15;2.80;;;1.00;;
10269;SDS011;5180;50.832;5.390;2022-10-16T09:25:50;1.15;;;0.80;;
10269;SDS011;5180;50.832;5.390;2022-10-16T09:28:16;3.70;;;1.00;;
10269;SDS011;5180;50.832;5.390;2022-10-16T09:30:43;1.35;;;0.80;;
10269;SDS011;5180;50.832;5.390;2022-10-16T09:33:10;3.10;;;1.02;;
10269;SDS011;5180;50.832;5.390;2022-10-16T09:35:40;3.00;;;1.00;;
10269;SDS011;5180;50.832;5.390;2022-10-16T09:38:09;2.33;;;1.08;;
10269;SDS011;5180;50.832;5.390;2022-10-16T09:40:50;2.83;;;1.02;;
10269;SDS011;5180;50.832;5.390;2022-10-16T09:46:09;1.75;;;1.10;;
10269;SDS011;5180;50.832;5.390;2022-10-16T09:49:03;3.22;;;1.20;;
10269;SDS011;5180;50.832;5.390;2022-10-16T09:51:43;1.85;;;1.00;;
10269;SDS011;5180;50.832;5.390;2022-10-16T09:56:34;6.47;;;1.00;;
10269;SDS011;5180;50.832;5.390;2022-10-16T09:59:11;3.55;;;0.95;;
10269;SDS011;5180;50.832;5.390;2022-10-16T10:01:39;1.73;;;1.00;;
10269;SDS011;5180;50.832;5.390;2022-10-16T10:04:07;1.02;;;0.75;;
10269;SDS011;5180;50.832;5.390;2022-10-16T10:11:42;2.83;;;0.90;;
10269;SDS011;5180;50.832;5.390;2022-10-16T10:16:41;1.88;;;0.80;;
10269;SDS011;5180;50.832;5.390;2022-10-16T10:19:16;4.20;;;0.95;;
10269;SDS011;5180;50.832;5.390;2022-10-16T10:21:43;2.72;;;0.93;;
10269;SDS011;5180;50.832;5.390;2022-10-16T10:24:10;2.95;;;0.88;;
10269;SDS011;5180;50.832;5.390;2022-10-16T10:26:37;2.88;;;0.93;;
10269;SDS011;5180;50.832;5.390;2022-10-16T10:29:08;1.85;;;0.93;;
10269;SDS011;5180;50.832;5.390;2022-10-16T10:32:13;2.00;;;0.88;;
10269;SDS011;5180;50.832;5.390;2022-10-16T10:35:13;2.95;;;1.02;;
10269;SDS011;5180;50.832;5.390;2022-10-16T10:37:51;1.80;;;1.10;;
10269;SDS011;5180;50.832;5.390;2022-10-16T10:43:18;2.28;;;0.90;;
10269;SDS011;5180;50.832;5.390;2022-10-16T10:45:48;1.48;;;0.80;;
10269;SDS011;5180;50.832;5.390;2022-10-16T10:50:57;2.13;;;0.80;;
10269;SDS011;5180;50.832;5.390;2022-10-16T11:04:24;2.10;;;1.00;;
10269;SDS011;5180;50.832;5.390;2022-10-16T11:06:55;2.55;;;1.30;;
10269;SDS011;5180;50.832;5.390;2022-10-16T11:09:28;5.15;;;2.00;;
10269;SDS011;5180;50.832;5.390;2022-10-16T11:15:17;2.13;;;1.40;;
10269;SDS011;5180;50.832;5.390;2022-10-16T11:17:54;3.60;;;1.35;;
10269;SDS011;5180;50.832;5.390;2022-10-16T11:20:37;2.50;;;1.42;;
10269;SDS011;5180;50.832;5.390;2022-10-16T11:23:42;3.08;;;1.20;;
10269;SDS011;5180;50.832;5.390;2022-10-16T11:26:28;2.97;;;1.17;;
10269;SDS011;5180;50.832;5.390;2022-10-16T11:28:58;3.33;;;1.20;;
10269;SDS011;5180;50.832;5.390;2022-10-16T11:31:34;2.03;;;1.42;;
10269;SDS011;5180;50.832;5.390;2022-10-16T11:34:19;1.48;;;1.00;;
10269;SDS011;5180;50.832;5.390;2022-10-16T11:42:07;2.92;;;1.00;;
10269;SDS011;5180;50.832;5.390;2022-10-16T11:44:48;3.20;;;0.90;;
10269;SDS011;5180;50.832;5.390;2022-10-16T11:47:51;2.00;;;0.85;;
10269;SDS011;5180;50.832;5.390;2022-10-16T11:55:57;4.20;;;1.02;;
10269;SDS011;5180;50.832;5.390;2022-10-16T11:58:28;1.63;;;1.10;;
10269;SDS011;5180;50.832;5.390;2022-10-16T12:03:35;2.33;;;0.93;;
10269;SDS011;5180;50.832;5.390;2022-10-16T12:08:58;4.28;;;1.00;;
10269;SDS011;5180;50.832;5.390;2022-10-16T12:14:04;1.98;;;0.93;;
10269;SDS011;5180;50.832;5.390;2022-10-16T12:16:50;1.80;;;0.95;;
10269;SDS011;5180;50.832;5.390;2022-10-16T12:19:20;1.13;;;1.00;;
10269;SDS011;5180;50.832;5.390;2022-10-16T12:21:46;2.05;;;1.00;;
10269;SDS011;5180;50.832;5.390;2022-10-16T12:26:55;5.63;;;0.90;;
10269;SDS011;5180;50.832;5.390;2022-10-16T12:29:40;1.17;;;0.75;;
10269;SDS011;5180;50.832;5.390;2022-10-16T12:32:23;2.13;;;0.90;;
10269;SDS011;5180;50.832;5.390;2022-10-16T12:34:57;1.77;;;0.80;;
10269;SDS011;5180;50.832;5.390;2022-10-16T12:37:25;1.23;;;0.70;;
10269;SDS011;5180;50.832;5.390;2022-10-16T12:39:55;1.75;;;0.85;;
10269;SDS011;5180;50.832;5.390;2022-10-16T12:44:53;2.50;;;0.88;;
10269;SDS011;5180;50.832;5.390;2022-10-16T12:47:24;1.05;;;0.85;;
10269;SDS011;5180;50.832;5.390;2022-10-16T12:50:02;0.95;;;0.70;;
10269;SDS011;5180;50.832;5.390;2022-10-16T12:52:38;3.85;;;1.00;;
10269;SDS011;5180;50.832;5.390;2022-10-16T12:55:05;3.38;;;0.80;;
10269;SDS011;5180;50.832;5.390;2022-10-16T13:05:49;1.65;;;1.00;;
10269;SDS011;5180;50.832;5.390;2022-10-16T13:08:24;1.50;;;1.00;;
10269;SDS011;5180;50.832;5.390;2022-10-16T13:10:56;2.35;;;1.10;;
10269;SDS011;5180;50.832;5.390;2022-10-16T13:13:36;1.25;;;1.15;;
10269;SDS011;5180;50.832;5.390;2022-10-16T13:24:58;1.95;;;1.10;;
10269;SDS011;5180;50.832;5.390;2022-10-16T13:28:00;2.72;;;1.40;;
10269;SDS011;5180;50.832;5.390;2022-10-16T13:30:31;2.10;;;0.90;;
10269;SDS011;5180;50.832;5.390;2022-10-16T13:35:47;2.08;;;0.90;;
10269;SDS011;5180;50.832;5.390;2022-10-16T13:38:25;2.53;;;0.90;;
10269;SDS011;5180;50.832;5.390;2022-10-16T13:40:56;1.65;;;0.90;;
10269;SDS011;5180;50.832;5.390;2022-10-16T13:43:37;3.15;;;1.17;;
10269;SDS011;5180;50.832;5.390;2022-10-16T13:46:16;2.33;;;1.15;;
10269;SDS011;5180;50.832;5.390;2022-10-16T13:48:56;1.63;;;1.52;;
10269;SDS011;5180;50.832;5.390;2022-10-16T13:51:26;1.70;;;1.60;;
10269;SDS011;5180;50.832;5.390;2022-10-16T13:53:52;2.13;;;2.00;;
10269;SDS011;5180;50.832;5.390;2022-10-16T13:56:22;6.40;;;1.70;;
10269;SDS011;5180;50.832;5.390;2022-10-16T13:59:01;2.28;;;2.08;;
10269;SDS011;5180;50.832;5.390;2022-10-16T14:01:32;3.35;;;1.92;;
10269;SDS011;5180;50.832;5.390;2022-10-16T14:04:09;2.60;;;2.40;;
10269;SDS011;5180;50.832;5.390;2022-10-16T14:06:40;2.38;;;2.28;;
10269;SDS011;5180;50.832;5.390;2022-10-16T14:11:54;1.27;;;1.17;;
10269;SDS011;5180;50.832;5.390;2022-10-16T14:14:23;1.60;;;1.50;;
10269;SDS011;5180;50.832;5.390;2022-10-16T14:16:49;2.35;;;1.38;;
10269;SDS011;5180;50.832;5.390;2022-10-16T14:19:18;1.42;;;1.33;;
10269;SDS011;5180;50.832;5.390;2022-10-16T14:21:45;3.55;;;1.65;;
10269;SDS011;5180;50.832;5.390;2022-10-16T14:24:12;2.97;;;2.78;;
10269;SDS011;5180;50.832;5.390;2022-10-16T14:26:49;2.92;;;2.58;;
10269;SDS011;5180;50.832;5.390;2022-10-16T14:29:18;3.60;;;3.40;;
10269;SDS011;5180;50.832;5.390;2022-10-16T14:31:55;4.43;;;3.83;;
10269;SDS011;5180;50.832;5.390;2022-10-16T14:36:58;4.43;;;4.13;;
10269;SDS011;5180;50.832;5.390;2022-10-16T14:39:27;3.60;;;3.17;;
10269;SDS011;5180;50.832;5.390;2022-10-16T14:41:55;3.55;;;3.25;;
10269;SDS011;5180;50.832;5.390;2022-10-16T14:44:25;3.70;;;3.22;;
10269;SDS011;5180;50.832;5.390;2022-10-16T14:46:57;3.90;;;3.70;;
10269;SDS011;5180;50.832;5.390;2022-10-16T14:49:24;2.85;;;2.67;;
10269;SDS011;5180;50.832;5.390;2022-10-16T14:51:51;2.70;;;2.50;;
10269;SDS011;5180;50.832;5.390;2022-10-16T14:54:17;3.30;;;2.88;;
10269;SDS011;5180;50.832;5.390;2022-10-16T14:56:48;6.45;;;6.05;;
10269;SDS011;5180;50.832;5.390;2022-10-16T14:59:15;6.63;;;6.32;;
10269;SDS011;5180;50.832;5.390;2022-10-16T15:01:54;5.88;;;5.57;;
10269;SDS011;5180;50.832;5.390;2022-10-16T15:04:19;4.70;;;4.38;;
10269;SDS011;5180;50.832;5.390;2022-10-16T15:06:45;5.13;;;4.82;;
10269;SDS011;5180;50.832;5.390;2022-10-16T15:09:11;5.20;;;4.90;;
10269;SDS011;5180;50.832;5.390;2022-10-16T15:11:37;7.07;;;4.85;;
10269;SDS011;5180;50.832;5.390;2022-10-16T15:14:03;5.65;;;5.25;;
10269;SDS011;5180;50.832;5.390;2022-10-16T15:16:29;6.88;;;6.18;;
10269;SDS011;5180;50.832;5.390;2022-10-16T15:18:55;6.43;;;5.85;;
10269;SDS011;5180;50.832;5.390;2022-10-16T15:21:28;4.68;;;4.40;;
10269;SDS011;5180;50.832;5.390;2022-10-16T15:23:56;4.18;;;3.03;;
10269;SDS011;5180;50.832;5.390;2022-10-16T15:26:26;3.25;;;3.05;;
10269;SDS011;5180;50.832;5.390;2022-10-16T15:28:53;3.88;;;3.03;;
10269;SDS011;5180;50.832;5.390;2022-10-16T15:31:19;3.22;;;3.03;;
10269;SDS011;5180;50.832;5.390;2022-10-16T15:33:48;3.90;;;2.97;;
10269;SDS011;5180;50.832;5.390;2022-10-16T15:36:24;5.97;;;4.32;;
10269;SDS011;5180;50.832;5.390;2022-10-16T15:38:50;4.20;;;4.00;;
10269;SDS011;5180;50.832;5.390;2022-10-16T15:41:16;5.45;;;5.10;;
10269;SDS011;5180;50.832;5.390;2022-10-16T15:43:42;5.53;;;5.13;;
10269;SDS011;5180;50.832;5.390;2022-10-16T15:46:08;6.25;;;5.75;;
10269;SDS011;5180;50.832;5.390;2022-10-16T15:48:42;6.55;;;6.05;;
10269;SDS011;5180;50.832;5.390;2022-10-16T15:51:08;5.88;;;5.57;;
10269;SDS011;5180;50.832;5.390;2022-10-16T15:53:34;6.88;;;6.50;;
10269;SDS011;5180;50.832;5.390;2022-10-16T15:56:03;7.57;;;7.05;;
10269;SDS011;5180;50.832;5.390;2022-10-16T15:58:30;8.38;;;7.78;;
10269;SDS011;5180;50.832;5.390;2022-10-16T16:00:57;12.40;;;9.63;;
10269;SDS011;5180;50.832;5.390;2022-10-16T16:03:25;7.03;;;6.43;;
10269;SDS011;5180;50.832;5.390;2022-10-16T16:05:51;7.32;;;5.72;;
10269;SDS011;5180;50.832;5.390;2022-10-16T16:08:17;6.53;;;5.90;;
10269;SDS011;5180;50.832;5.390;2022-10-16T16:10:43;8.55;;;6.32;;
10269;SDS011;5180;50.832;5.390;2022-10-16T16:13:09;11.05;;;9.15;;
10269;SDS011;5180;50.832;5.390;2022-10-16T16:15:36;7.50;;;6.85;;
10269;SDS011;5180;50.832;5.390;2022-10-16T16:18:04;6.93;;;6.43;;
10269;SDS011;5180;50.832;5.390;2022-10-16T16:20:30;7.75;;;7.32;;
10269;SDS011;5180;50.832;5.390;2022-10-16T16:22:56;9.32;;;8.52;;
10269;SDS011;5180;50.832;5.390;2022-10-16T16:25:22;10.55;;;9.65;;
10269;SDS011;5180;50.832;5.390;2022-10-16T16:27:47;9.00;;;8.40;;
10269;SDS011;5180;50.832;5.390;2022-10-16T16:30:13;7.00;;;6.50;;
10269;SDS011;5180;50.832;5.390;2022-10-16T16:32:39;6.15;;;5.72;;
10269;SDS011;5180;50.832;5.390;2022-10-16T16:35:05;6.78;;;6.30;;
10269;SDS011;5180;50.832;5.390;2022-10-16T16:37:31;8.43;;;7.72;;
10269;SDS011;5180;50.832;5.390;2022-10-16T16:39:56;9.68;;;8.93;;
10269;SDS011;5180;50.832;5.390;2022-10-16T16:42:26;8.63;;;8.02;;
10269;SDS011;5180;50.832;5.390;2022-10-16T16:44:52;9.98;;;9.18;;
10269;SDS011;5180;50.832;5.390;2022-10-16T16:47:18;11.43;;;9.57;;
10269;SDS011;5180;50.832;5.390;2022-10-16T16:49:44;11.55;;;10.63;;
10269;SDS011;5180;50.832;5.390;2022-10-16T16:52:11;10.23;;;9.40;;
10269;SDS011;5180;50.832;5.390;2022-10-16T16:54:37;8.40;;;7.82;;
10269;SDS011;5180;50.832;5.390;2022-10-16T16:57:02;8.30;;;7.60;;
10269;SDS011;5180;50.832;5.390;2022-10-16T16:59:29;10.02;;;9.23;;
10269;SDS011;5180;50.832;5.390;2022-10-16T17:01:57;9.40;;;8.75;;
10269;SDS011;5180;50.832;5.390;2022-10-16T17:04:26;9.20;;;8.27;;